createdAt,value
2019-04-04T00:02:12.616Z,98125.00
2019-04-04T00:04:42.617Z,98118.00
2019-04-04T00:07:12.418Z,98115.00
2019-04-04T00:09:42.104Z,98111.00
2019-04-04T00:12:14.498Z,98102.00
2019-04-04T00:14:46.250Z,98103.00
2019-04-04T00:17:15.930Z,98099.00
2019-04-04T00:19:45.578Z,98108.00
2019-04-04T00:22:16.605Z,98092.00
2019-04-04T00:24:47.737Z,98091.00
2019-04-04T00:27:17.398Z,98090.00
2019-04-04T00:29:47.973Z,98084.00
2019-04-04T00:32:20.721Z,98076.00
2019-04-04T00:34:51.391Z,98086.00
2019-04-04T00:37:21.039Z,98075.00
2019-04-04T00:39:50.711Z,98062.00
2019-04-04T00:42:20.376Z,98077.00
2019-04-04T00:44:50.017Z,98071.00
2019-04-04T00:47:19.711Z,98063.00
2019-04-04T00:49:49.346Z,98079.00
2019-04-04T00:52:20.603Z,98072.00
2019-04-04T00:54:50.274Z,98061.00
2019-04-04T00:57:21.330Z,98067.00
2019-04-04T00:59:53.320Z,98057.00
2019-04-04T01:02:22.380Z,98053.00
2019-04-04T01:04:52.157Z,98043.00
2019-04-04T01:07:21.793Z,98047.00
2019-04-04T01:09:51.461Z,98043.00
2019-04-04T01:12:21.643Z,98036.00
2019-04-04T01:14:51.978Z,98036.00
2019-04-04T01:17:21.713Z,98034.00
2019-04-04T01:19:51.378Z,98039.00
2019-04-04T01:22:21.028Z,98032.00
2019-04-04T01:24:50.746Z,98037.00
2019-04-04T01:27:20.280Z,98026.00
2019-04-04T01:29:49.941Z,98024.00
2019-04-04T01:32:19.809Z,98026.00
2019-04-04T01:34:52.141Z,98017.00
2019-04-04T01:37:22.183Z,98015.00
2019-04-04T01:39:51.971Z,98023.00
2019-04-04T01:42:21.631Z,98011.00
2019-04-04T01:44:51.405Z,98002.00
2019-04-04T01:47:21.104Z,97999.00
2019-04-04T01:49:51.868Z,97997.00
2019-04-04T01:52:22.206Z,97997.00
2019-04-04T01:54:51.881Z,97999.00
2019-04-04T01:57:22.150Z,97998.00
2019-04-04T01:59:51.812Z,98002.00
2019-04-04T02:02:21.493Z,98001.00
2019-04-04T02:04:55.852Z,97998.00
2019-04-04T02:07:26.104Z,97992.00
2019-04-04T02:09:55.794Z,97992.00
2019-04-04T02:12:25.456Z,97986.00
2019-04-04T02:14:56.231Z,97837.00
2019-04-04T02:17:25.907Z,97986.00
2019-04-04T02:19:56.345Z,97997.00
2019-04-04T02:22:26.091Z,97985.00
2019-04-04T02:24:55.764Z,97981.00
2019-04-04T02:27:25.419Z,97977.00
2019-04-04T02:29:55.155Z,97972.00
2019-04-04T02:32:27.906Z,97978.00
2019-04-04T02:34:59.281Z,97978.00
2019-04-04T02:37:30.057Z,97976.00
2019-04-04T02:39:59.875Z,97970.00
2019-04-04T02:42:29.535Z,97963.00
2019-04-04T02:44:59.180Z,97957.00
2019-04-04T02:47:28.852Z,97961.00
2019-04-04T02:50:00.657Z,97965.00
2019-04-04T02:52:29.870Z,97960.00
2019-04-04T02:54:59.572Z,97962.00
2019-04-04T02:57:29.227Z,97949.00
2019-04-04T02:59:59.929Z,97940.00
2019-04-04T03:02:29.612Z,97945.00
2019-04-04T03:04:59.325Z,97936.00
2019-04-04T03:07:30.908Z,97941.00
2019-04-04T03:10:02.098Z,97938.00
2019-04-04T03:12:31.739Z,97935.00
2019-04-04T03:15:01.431Z,97929.00
2019-04-04T03:17:32.655Z,97933.00
2019-04-04T03:20:02.415Z,97924.00
2019-04-04T03:22:32.066Z,97934.00
2019-04-04T03:25:01.909Z,97926.00
2019-04-04T03:27:31.546Z,97926.00
2019-04-04T03:30:01.200Z,97914.00
2019-04-04T03:32:30.874Z,97916.00
2019-04-04T03:35:01.823Z,97920.00
2019-04-04T03:37:31.621Z,97910.00
2019-04-04T03:40:01.308Z,97907.00
2019-04-04T03:42:30.957Z,97913.00
2019-04-04T03:45:00.615Z,97910.00
2019-04-04T03:47:30.313Z,97908.00
2019-04-04T03:50:01.045Z,97910.00
2019-04-04T03:52:32.316Z,97917.00
2019-04-04T03:55:01.988Z,97918.00
2019-04-04T03:57:31.632Z,97918.00
2019-04-04T04:00:05.697Z,97909.00
2019-04-04T04:02:32.945Z,97905.00
2019-04-04T04:05:02.684Z,97908.00
2019-04-04T04:07:32.317Z,97904.00
2019-04-04T04:10:02.177Z,97904.00
2019-04-04T04:12:32.210Z,97906.00
2019-04-04T04:15:01.902Z,97901.00
2019-04-04T04:17:31.614Z,97895.00
2019-04-04T04:20:04.031Z,97903.00
2019-04-04T04:22:32.653Z,97891.00
2019-04-04T04:25:03.641Z,97894.00
2019-04-04T04:27:33.573Z,97898.00
2019-04-04T04:30:07.274Z,97895.00
2019-04-04T04:32:37.359Z,97892.00
2019-04-04T04:35:09.132Z,97898.00
2019-04-04T04:37:38.901Z,97899.00
2019-04-04T04:40:13.922Z,97895.00
2019-04-04T04:42:40.375Z,97894.00
2019-04-04T04:45:12.449Z,97888.00
2019-04-04T04:47:42.381Z,97889.00
2019-04-04T04:50:12.239Z,97885.00
2019-04-04T04:52:46.291Z,97882.00
2019-04-04T04:55:13.638Z,97890.00
2019-04-04T04:57:43.305Z,97887.00
2019-04-04T05:00:14.003Z,97889.00
2019-04-04T05:02:44.859Z,97884.00
2019-04-04T05:05:14.781Z,97883.00
2019-04-04T05:07:44.453Z,97866.00
2019-04-04T05:10:15.066Z,97872.00
2019-04-04T05:12:45.654Z,97870.00
2019-04-04T05:15:15.692Z,97874.00
2019-04-04T05:17:45.400Z,97862.00
2019-04-04T05:20:15.482Z,97868.00
2019-04-04T05:22:46.665Z,97853.00
2019-04-04T05:25:16.328Z,97859.00
2019-04-04T05:27:46.008Z,97857.00
2019-04-04T05:30:16.648Z,97847.00
2019-04-04T05:32:46.760Z,97857.00
2019-04-04T05:35:16.432Z,97853.00
2019-04-04T05:37:46.092Z,97859.00
2019-04-04T05:40:16.285Z,97856.00
2019-04-04T05:42:45.970Z,97854.00
2019-04-04T05:45:15.994Z,97848.00
2019-04-04T05:47:46.002Z,97852.00
2019-04-04T05:50:17.109Z,97855.00
2019-04-04T05:52:46.774Z,97849.00
2019-04-04T05:55:16.467Z,97855.00
2019-04-04T05:57:47.072Z,97857.00
2019-04-04T06:00:18.181Z,97856.00
2019-04-04T06:02:47.922Z,97854.00
2019-04-04T06:05:17.606Z,97853.00
2019-04-04T06:07:47.263Z,97853.00
2019-04-04T06:10:18.537Z,97852.00
2019-04-04T06:12:48.721Z,97854.00
2019-04-04T06:15:18.367Z,97855.00
2019-04-04T06:17:48.157Z,97856.00
2019-04-04T06:20:18.120Z,97855.00
2019-04-04T06:22:47.787Z,97842.00
2019-04-04T06:25:17.491Z,97856.00
2019-04-04T06:27:47.155Z,97846.00
2019-04-04T06:30:18.113Z,97844.00
2019-04-04T06:32:48.547Z,97839.00
2019-04-04T06:35:18.209Z,97841.00
2019-04-04T06:37:49.192Z,97837.00
2019-04-04T06:40:19.643Z,97831.00
2019-04-04T06:42:49.310Z,97843.00
2019-04-04T06:45:18.975Z,97843.00
2019-04-04T06:47:48.634Z,97844.00
2019-04-04T06:50:18.307Z,97849.00
2019-04-04T06:52:48.260Z,97843.00
2019-04-04T06:55:19.382Z,97848.00
2019-04-04T06:57:51.318Z,97841.00
2019-04-04T07:00:24.760Z,97844.00
2019-04-04T07:03:03.866Z,97838.00
2019-04-04T07:05:33.531Z,97839.00
2019-04-04T07:08:03.367Z,97845.00
2019-04-04T07:10:33.126Z,97844.00
2019-04-04T07:13:14.860Z,97846.00
2019-04-04T07:15:45.910Z,97844.00
2019-04-04T07:18:05.699Z,97848.00
2019-04-04T07:20:35.370Z,97844.00
2019-04-04T07:23:05.038Z,97839.00
2019-04-04T07:25:35.960Z,97835.00
2019-04-04T07:28:05.837Z,97841.00
2019-04-04T07:30:35.541Z,97828.00
2019-04-04T07:33:05.212Z,97827.00
2019-04-04T07:35:35.230Z,97830.00
2019-04-04T07:38:04.874Z,97835.00
2019-04-04T07:40:37.188Z,97820.00
2019-04-04T07:43:08.580Z,97824.00
2019-04-04T07:45:37.597Z,97824.00
2019-04-04T07:48:07.255Z,97831.00
2019-04-04T07:50:36.926Z,97822.00
2019-04-04T07:53:08.533Z,97822.00
2019-04-04T07:55:38.205Z,97816.00
2019-04-04T07:58:07.875Z,97813.00
2019-04-04T08:00:38.690Z,97812.00
2019-04-04T08:03:08.360Z,97802.00
2019-04-04T08:05:38.042Z,97813.00
2019-04-04T08:08:07.703Z,97805.00
2019-04-04T08:10:37.468Z,97795.00
2019-04-04T08:13:07.154Z,97797.00
2019-04-04T08:15:36.828Z,97806.00
2019-04-04T08:18:06.481Z,97802.00
2019-04-04T08:20:37.125Z,97799.00
2019-04-04T08:23:08.245Z,97801.00
2019-04-04T08:25:37.909Z,97804.00
2019-04-04T08:28:07.740Z,97809.00
2019-04-04T08:30:39.366Z,97799.00
2019-04-04T08:33:09.040Z,97802.00
2019-04-04T08:35:40.399Z,97789.00
2019-04-04T08:38:12.314Z,97793.00
2019-04-04T08:40:41.969Z,97782.00
2019-04-04T08:43:13.689Z,97777.00
2019-04-04T08:45:43.369Z,97784.00
2019-04-04T08:48:15.877Z,97777.00
2019-04-04T08:50:45.636Z,97784.00
2019-04-04T08:53:15.326Z,97788.00
2019-04-04T08:55:44.978Z,97773.00
2019-04-04T08:58:24.660Z,97779.00
2019-04-04T09:00:55.783Z,97772.00
2019-04-04T09:03:29.817Z,97769.00
2019-04-04T09:06:02.655Z,97772.00
2019-04-04T09:08:33.242Z,97767.00
2019-04-04T09:11:04.567Z,97760.00
2019-04-04T09:13:34.932Z,97757.00
2019-04-04T09:16:04.702Z,97760.00
2019-04-04T09:18:36.380Z,97752.00
2019-04-04T09:21:06.073Z,97752.00
2019-04-04T09:23:35.736Z,97745.00
2019-04-04T09:26:06.390Z,97762.00
2019-04-04T09:28:36.180Z,97760.00
2019-04-04T09:31:05.841Z,97747.00
2019-04-04T09:33:36.813Z,97742.00
2019-04-04T09:36:06.483Z,97750.00
2019-04-04T09:38:36.146Z,97739.00
2019-04-04T09:41:06.030Z,97743.00
2019-04-04T09:43:37.337Z,97742.00
2019-04-04T09:46:07.115Z,97733.00
2019-04-04T09:48:36.874Z,97744.00
2019-04-04T09:51:06.628Z,97733.00
2019-04-04T09:53:52.080Z,97740.00
2019-04-04T09:56:21.131Z,97725.00
2019-04-04T09:58:50.859Z,97721.00
2019-04-04T10:01:20.525Z,97724.00
2019-04-04T10:03:50.210Z,97729.00
2019-04-04T10:06:19.888Z,97729.00
2019-04-04T10:08:49.555Z,97725.00
2019-04-04T10:11:19.297Z,97727.00
2019-04-04T10:13:49.051Z,97728.00
2019-04-04T10:16:18.725Z,97716.00
2019-04-04T10:18:48.407Z,97713.00
2019-04-04T10:21:19.907Z,97706.00
2019-04-04T10:23:49.571Z,97720.00
2019-04-04T10:26:19.248Z,97719.00
2019-04-04T10:28:48.921Z,97710.00
2019-04-04T10:31:18.565Z,97707.00
2019-04-04T10:33:48.303Z,97706.00
2019-04-04T10:36:19.425Z,97709.00
2019-04-04T10:38:49.167Z,97707.00
2019-04-04T10:41:18.973Z,97714.00
2019-04-04T10:43:48.624Z,97708.00
2019-04-04T10:46:20.320Z,97702.00
2019-04-04T10:48:50.024Z,97709.00
2019-04-04T10:51:19.687Z,97710.00
2019-04-04T10:53:49.365Z,97692.00
2019-04-04T10:56:19.229Z,97702.00
2019-04-04T10:58:48.890Z,97696.00
2019-04-04T11:01:18.565Z,97702.00
2019-04-04T11:03:49.721Z,97700.00
2019-04-04T11:06:19.392Z,97701.00
2019-04-04T11:08:50.146Z,97705.00
2019-04-04T11:11:24.436Z,97678.00
2019-04-04T11:13:54.220Z,97703.00
2019-04-04T11:16:29.946Z,97702.00
2019-04-04T11:18:55.277Z,97702.00
2019-04-04T11:21:25.177Z,97699.00
2019-04-04T11:23:54.848Z,97696.00
2019-04-04T11:26:26.224Z,97697.00
2019-04-04T11:28:55.952Z,97699.00
2019-04-04T11:31:27.078Z,97704.00
2019-04-04T11:33:58.133Z,97698.00
2019-04-04T11:36:29.445Z,97703.00
2019-04-04T11:38:59.498Z,97712.00
2019-04-04T11:41:29.180Z,97724.00
2019-04-04T11:43:59.731Z,97716.00
2019-04-04T11:46:30.210Z,97715.00
2019-04-04T11:48:59.894Z,97710.00
2019-04-04T11:51:30.380Z,97699.00
2019-04-04T11:54:00.139Z,97705.00
2019-04-04T11:56:29.832Z,97708.00
2019-04-04T11:58:59.488Z,97715.00
2019-04-04T12:01:35.265Z,97714.00
2019-04-04T12:04:05.253Z,97716.00
2019-04-04T12:06:34.904Z,97712.00
2019-04-04T12:09:06.852Z,97722.00
2019-04-04T12:11:36.509Z,97722.00
2019-04-04T12:14:06.877Z,97729.00
2019-04-04T12:16:36.551Z,97725.00
2019-04-04T12:19:06.319Z,97726.00
2019-04-04T12:21:35.976Z,97721.00
2019-04-04T12:24:05.953Z,97722.00
2019-04-04T12:26:35.889Z,97719.00
2019-04-04T12:29:05.681Z,97716.00
2019-04-04T12:31:35.480Z,97719.00
2019-04-04T12:34:05.106Z,97709.00
2019-04-04T12:36:34.763Z,97716.00
2019-04-04T12:39:06.059Z,97725.00
2019-04-04T12:41:37.184Z,97724.00
2019-04-04T12:44:08.407Z,97715.00
2019-04-04T12:46:42.612Z,97724.00
2019-04-04T12:49:12.444Z,97718.00
2019-04-04T12:51:42.165Z,97728.00
2019-04-04T12:54:11.850Z,97731.00
2019-04-04T12:56:41.514Z,97738.00
2019-04-04T12:59:11.228Z,97750.00
2019-04-04T13:01:40.948Z,97748.00
2019-04-04T13:04:12.185Z,97752.00
2019-04-04T13:06:41.861Z,97746.00
2019-04-04T13:09:13.034Z,97750.00
2019-04-04T13:11:42.675Z,97748.00
2019-04-04T13:14:12.355Z,97748.00
2019-04-04T13:16:42.057Z,97769.00
2019-04-04T13:19:13.430Z,97770.00
2019-04-04T13:21:43.107Z,97758.00
2019-04-04T13:24:12.821Z,97775.00
2019-04-04T13:26:42.481Z,97784.00
2019-04-04T13:29:13.759Z,97771.00
2019-04-04T13:31:44.013Z,97790.00
2019-04-04T13:34:15.038Z,97803.00
2019-04-04T13:36:44.692Z,97803.00
2019-04-04T13:39:15.914Z,97805.00
2019-04-04T13:41:45.488Z,97799.00
2019-04-04T13:44:15.177Z,97797.00
2019-04-04T13:46:44.878Z,97790.00
2019-04-04T13:49:14.551Z,97790.00
2019-04-04T13:51:44.216Z,97794.00
2019-04-04T13:54:13.908Z,97779.00
2019-04-04T13:56:43.652Z,97788.00
2019-04-04T13:59:14.981Z,97782.00
2019-04-04T14:01:45.997Z,97778.00
2019-04-04T14:04:15.659Z,97777.00
2019-04-04T14:06:45.324Z,97779.00
2019-04-04T14:09:15.129Z,97783.00
2019-04-04T14:11:44.863Z,97787.00
2019-04-04T14:14:14.607Z,97796.00
2019-04-04T14:16:45.355Z,97801.00
2019-04-04T14:19:15.682Z,97798.00
2019-04-04T14:21:45.414Z,97798.00
2019-04-04T14:24:15.169Z,97797.00
2019-04-04T14:26:46.128Z,97799.00
2019-04-04T14:29:27.119Z,97804.00
2019-04-04T14:31:51.716Z,97818.00
2019-04-04T14:34:21.403Z,97815.00
2019-04-04T14:36:51.095Z,97816.00
2019-04-04T14:39:20.755Z,97814.00
2019-04-04T14:41:50.682Z,97810.00
2019-04-04T14:44:20.397Z,97812.00
2019-04-04T14:46:50.067Z,97814.00
2019-04-04T14:49:19.724Z,97817.00
2019-04-04T14:51:49.408Z,97808.00
2019-04-04T14:54:19.121Z,97811.00
2019-04-04T14:56:48.865Z,97800.00
2019-04-04T14:59:18.559Z,97813.00
2019-04-04T15:01:49.204Z,97812.00
2019-04-04T15:04:20.618Z,97823.00
2019-04-04T15:06:50.333Z,97822.00
2019-04-04T15:09:19.986Z,97805.00
2019-04-04T15:11:51.691Z,97825.00
2019-04-04T15:14:21.389Z,97821.00
2019-04-04T15:16:51.050Z,97823.00
2019-04-04T15:19:20.704Z,97832.00
2019-04-04T15:21:50.395Z,97818.00
2019-04-04T15:24:20.047Z,97825.00
2019-04-04T15:26:49.783Z,97806.00
2019-04-04T15:29:20.290Z,97818.00
2019-04-04T15:31:49.953Z,97821.00
2019-04-04T15:34:20.902Z,97817.00
2019-04-04T15:36:50.583Z,97816.00
2019-04-04T15:39:20.246Z,97823.00
2019-04-04T15:41:51.371Z,97841.00
2019-04-04T15:44:21.088Z,97834.00
2019-04-04T15:46:51.929Z,97828.00
2019-04-04T15:49:21.596Z,97826.00
2019-04-04T15:51:51.288Z,97831.00
2019-04-04T15:54:20.950Z,97825.00
2019-04-04T15:56:51.201Z,97837.00
2019-04-04T15:59:20.880Z,97830.00
2019-04-04T16:01:50.947Z,97834.00
2019-04-04T16:04:20.604Z,97833.00
2019-04-04T16:06:50.288Z,97846.00
2019-04-04T16:09:19.945Z,97827.00
2019-04-04T16:11:50.193Z,97840.00
2019-04-04T16:14:19.889Z,97843.00
2019-04-04T16:16:49.644Z,97849.00
2019-04-04T16:19:19.323Z,97858.00
2019-04-04T16:21:49.010Z,97848.00
2019-04-04T16:24:18.683Z,97834.00
2019-04-04T16:26:48.369Z,97846.00
2019-04-04T16:29:18.072Z,97849.00
2019-04-04T16:31:47.738Z,97866.00
2019-04-04T16:34:17.395Z,97864.00
2019-04-04T16:36:47.079Z,97858.00
2019-04-04T16:39:16.744Z,97854.00
2019-04-04T16:41:46.408Z,97864.00
2019-04-04T16:44:16.897Z,97885.00
2019-04-04T16:46:46.555Z,97877.00
2019-04-04T16:49:16.448Z,97882.00
2019-04-04T16:51:46.203Z,97897.00
2019-04-04T16:54:15.860Z,97896.00
2019-04-04T16:56:45.522Z,97906.00
2019-04-04T16:59:15.620Z,97919.00
2019-04-04T17:01:45.277Z,97904.00
2019-04-04T17:04:14.929Z,97908.00
2019-04-04T17:06:47.752Z,97903.00
2019-04-04T17:09:17.402Z,97913.00
2019-04-04T17:11:47.091Z,97919.00
2019-04-04T17:14:16.799Z,97937.00
2019-04-04T17:16:46.505Z,97936.00
2019-04-04T17:19:17.546Z,97941.00
2019-04-04T17:21:47.252Z,97953.00
2019-04-04T17:24:16.923Z,97949.00
2019-04-04T17:26:46.660Z,97963.00
2019-04-04T17:29:35.597Z,97973.00
2019-04-04T17:32:05.324Z,97973.00
2019-04-04T17:34:35.274Z,97975.00
2019-04-04T17:37:05.240Z,97976.00
2019-04-04T17:39:34.899Z,97977.00
2019-04-04T17:42:04.553Z,97986.00
2019-04-04T17:44:37.265Z,98006.00
2019-04-04T17:47:06.925Z,98000.00
2019-04-04T17:49:36.587Z,98013.00
2019-04-04T17:52:06.869Z,98011.00
2019-04-04T17:54:37.374Z,98012.00
2019-04-04T17:57:08.694Z,98012.00
2019-04-04T17:59:38.388Z,98008.00
2019-04-04T18:02:08.362Z,98018.00
2019-04-04T18:04:47.849Z,98013.00
2019-04-04T18:07:09.449Z,98006.00
2019-04-04T18:09:39.101Z,98024.00
2019-04-04T18:12:08.750Z,98022.00
2019-04-04T18:14:39.655Z,98037.00
2019-04-04T18:17:09.323Z,98046.00
2019-04-04T18:19:39.100Z,98060.00
2019-04-04T18:22:08.862Z,98062.00
2019-04-04T18:24:38.655Z,98060.00
2019-04-04T18:27:08.415Z,98069.00
2019-04-04T18:29:38.134Z,98070.00
2019-04-04T18:32:07.982Z,98086.00
2019-04-04T18:34:38.164Z,98089.00
2019-04-04T18:37:08.024Z,98099.00
2019-04-04T18:39:37.950Z,98096.00
2019-04-04T18:42:14.697Z,98098.00
2019-04-04T18:44:44.396Z,98096.00
2019-04-04T18:47:14.041Z,98106.00
2019-04-04T18:49:43.693Z,98110.00
2019-04-04T18:52:13.377Z,98128.00
2019-04-04T18:54:43.048Z,98119.00
2019-04-04T18:57:13.247Z,98130.00
2019-04-04T18:59:44.311Z,98133.00
2019-04-04T19:02:14.000Z,98140.00
2019-04-04T19:04:43.662Z,98132.00
2019-04-04T19:07:13.355Z,98141.00
2019-04-04T19:09:44.479Z,98137.00
2019-04-04T19:12:16.326Z,98141.00
2019-04-04T19:14:46.005Z,98143.00
2019-04-04T19:17:15.653Z,98144.00
2019-04-04T19:19:45.440Z,98149.00
2019-04-04T19:22:15.147Z,98159.00
2019-04-04T19:24:44.806Z,98161.00
2019-04-04T19:27:14.468Z,98160.00
2019-04-04T19:29:44.155Z,98167.00
2019-04-04T19:32:13.822Z,98165.00
2019-04-04T19:34:44.768Z,98168.00
2019-04-04T19:37:14.465Z,98164.00
2019-04-04T19:39:44.114Z,98170.00
2019-04-04T19:42:13.848Z,98174.00
2019-04-04T19:44:52.635Z,98190.00
2019-04-04T19:47:15.741Z,98199.00
2019-04-04T19:49:45.388Z,98203.00
2019-04-04T19:52:15.267Z,98198.00
2019-04-04T19:54:44.940Z,98188.00
2019-04-04T19:57:16.826Z,98201.00
2019-04-04T19:59:46.170Z,98224.00
2019-04-04T20:02:15.904Z,98169.00
2019-04-04T20:04:45.564Z,98223.00
2019-04-04T20:07:15.252Z,98223.00
2019-04-04T20:09:45.518Z,98228.00
2019-04-04T20:12:17.989Z,98182.00
2019-04-04T20:14:49.019Z,98241.00
2019-04-04T20:17:18.693Z,98234.00
2019-04-04T20:19:48.363Z,98231.00
2019-04-04T20:22:18.333Z,98228.00
2019-04-04T20:24:48.001Z,98233.00
2019-04-04T20:27:17.797Z,98236.00
2019-04-04T20:29:47.473Z,98233.00
2019-04-04T20:32:17.179Z,98225.00
2019-04-04T20:34:46.838Z,98233.00
2019-04-04T20:37:16.513Z,98246.00
2019-04-04T20:39:46.175Z,98247.00
2019-04-04T20:42:15.836Z,98253.00
2019-04-04T20:44:45.523Z,98244.00
2019-04-04T20:47:15.175Z,98252.00
2019-04-04T20:49:44.896Z,98259.00
2019-04-04T20:52:14.616Z,98271.00
2019-04-04T20:54:44.293Z,98258.00
2019-04-04T20:57:14.048Z,98258.00
2019-04-04T20:59:43.735Z,98256.00
2019-04-04T21:02:13.389Z,98274.00
2019-04-04T21:04:43.198Z,98270.00
2019-04-04T21:07:13.585Z,98274.00
2019-04-04T21:09:43.259Z,98283.00
2019-04-04T21:12:12.972Z,98293.00
2019-04-04T21:14:43.798Z,98300.00
2019-04-04T21:17:13.573Z,98295.00
2019-04-04T21:19:43.521Z,98300.00
2019-04-04T21:22:13.183Z,98300.00
2019-04-04T21:24:42.874Z,98302.00
2019-04-04T21:27:12.528Z,98301.00
2019-04-04T21:29:42.320Z,98312.00
2019-04-04T21:32:13.715Z,98300.00
2019-04-04T21:34:44.836Z,98306.00
2019-04-04T21:37:15.775Z,98303.00
2019-04-04T21:39:49.407Z,98300.00
2019-04-04T21:42:19.118Z,98306.00
2019-04-04T21:44:49.495Z,98309.00
2019-04-04T21:47:19.320Z,98310.00
2019-04-04T21:49:51.172Z,98313.00
2019-04-04T21:52:20.862Z,98317.00
2019-04-04T21:54:50.530Z,98320.00
2019-04-04T21:57:20.196Z,98317.00
2019-04-04T21:59:49.871Z,98309.00
2019-04-04T22:02:19.552Z,98319.00
2019-04-04T22:04:49.204Z,98333.00
2019-04-04T22:07:19.702Z,98322.00
2019-04-04T22:09:49.467Z,98330.00
2019-04-04T22:12:21.634Z,98315.00
2019-04-04T22:14:51.476Z,98328.00
2019-04-04T22:17:21.379Z,98335.00
2019-04-04T22:19:51.052Z,98327.00
2019-04-04T22:22:25.325Z,98334.00
2019-04-04T22:24:55.122Z,98347.00
2019-04-04T22:27:27.969Z,98336.00
2019-04-04T22:29:58.743Z,98349.00
2019-04-04T22:32:28.391Z,98341.00
2019-04-04T22:34:58.208Z,98343.00
2019-04-04T22:37:27.978Z,98344.00
2019-04-04T22:39:57.631Z,98340.00
2019-04-04T22:42:27.289Z,98357.00
2019-04-04T22:44:56.961Z,98361.00
2019-04-04T22:47:27.636Z,98373.00
2019-04-04T22:49:57.292Z,98369.00
2019-04-04T22:52:29.597Z,98371.00
2019-04-04T22:54:59.260Z,98367.00
2019-04-04T22:57:29.241Z,98362.00
2019-04-04T22:59:58.925Z,98368.00
2019-04-04T23:02:28.574Z,98369.00
2019-04-04T23:04:58.239Z,98371.00
2019-04-04T23:07:27.921Z,98369.00
2019-04-04T23:09:57.950Z,98365.00
2019-04-04T23:12:28.404Z,98371.00
2019-04-04T23:14:58.153Z,98379.00
2019-04-04T23:17:27.820Z,98372.00
2019-04-04T23:19:58.948Z,98375.00
2019-04-04T23:22:29.973Z,98386.00
2019-04-04T23:25:02.588Z,98386.00
2019-04-04T23:27:32.603Z,98372.00
2019-04-04T23:30:07.214Z,98381.00
2019-04-04T23:32:37.241Z,98373.00
2019-04-04T23:35:10.063Z,98377.00
2019-04-04T23:37:39.744Z,98381.00
2019-04-04T23:40:11.171Z,98377.00
2019-04-04T23:42:40.834Z,98373.00
2019-04-04T23:45:10.505Z,98376.00
2019-04-04T23:47:43.207Z,98369.00
2019-04-04T23:50:12.234Z,98376.00
2019-04-04T23:52:41.897Z,98381.00
2019-04-04T23:55:11.557Z,98386.00
2019-04-04T23:57:41.223Z,98391.00
